sensor_id;sensor_type;location;lat;lon;timestamp;P1;durP1;ratioP1;P2;durP2;ratioP2
13202;SDS011;6666;51.626;7.530;2023-03-03T00:01:36;27.25;;;11.68;;
13202;SDS011;6666;51.626;7.530;2023-03-03T00:04:05;26.77;;;11.68;;
13202;SDS011;6666;51.626;7.530;2023-03-03T00:06:33;26.10;;;11.10;;
13202;SDS011;6666;51.626;7.530;2023-03-03T00:09:01;26.88;;;11.68;;
13202;SDS011;6666;51.626;7.530;2023-03-03T00:11:30;23.05;;;10.32;;
13202;SDS011;6666;51.626;7.530;2023-03-03T00:13:58;29.50;;;11.00;;
13202;SDS011;6666;51.626;7.530;2023-03-03T00:16:27;25.50;;;10.80;;
13202;SDS011;6666;51.626;7.530;2023-03-03T00:18:59;24.60;;;11.20;;
13202;SDS011;6666;51.626;7.530;2023-03-03T00:21:28;22.38;;;11.10;;
13202;SDS011;6666;51.626;7.530;2023-03-03T00:24:04;27.25;;;11.00;;
13202;SDS011;6666;51.626;7.530;2023-03-03T00:26:44;27.90;;;10.95;;
13202;SDS011;6666;51.626;7.530;2023-03-03T00:29:30;24.55;;;11.43;;
13202;SDS011;6666;51.626;7.530;2023-03-03T00:34:53;22.55;;;11.35;;
13202;SDS011;6666;51.626;7.530;2023-03-03T00:37:31;23.00;;;11.15;;
13202;SDS011;6666;51.626;7.530;2023-03-03T00:42:48;27.48;;;12.27;;
13202;SDS011;6666;51.626;7.530;2023-03-03T00:45:22;25.95;;;11.20;;
13202;SDS011;6666;51.626;7.530;2023-03-03T00:47:53;23.70;;;11.55;;
13202;SDS011;6666;51.626;7.530;2023-03-03T00:50:28;25.60;;;11.65;;
13202;SDS011;6666;51.626;7.530;2023-03-03T00:53:05;28.40;;;11.50;;
13202;SDS011;6666;51.626;7.530;2023-03-03T00:55:37;28.83;;;12.73;;
13202;SDS011;6666;51.626;7.530;2023-03-03T00:58:06;33.13;;;12.73;;
13202;SDS011;6666;51.626;7.530;2023-03-03T01:00:39;31.05;;;11.65;;
13202;SDS011;6666;51.626;7.530;2023-03-03T01:03:11;32.05;;;12.85;;
13202;SDS011;6666;51.626;7.530;2023-03-03T01:05:43;27.25;;;11.65;;
13202;SDS011;6666;51.626;7.530;2023-03-03T01:08:11;35.72;;;13.73;;
13202;SDS011;6666;51.626;7.530;2023-03-03T01:10:41;38.55;;;15.98;;
13202;SDS011;6666;51.626;7.530;2023-03-03T01:13:11;33.78;;;14.40;;
13202;SDS011;6666;51.626;7.530;2023-03-03T01:15:39;34.72;;;15.43;;
13202;SDS011;6666;51.626;7.530;2023-03-03T01:18:08;39.47;;;15.70;;
13202;SDS011;6666;51.626;7.530;2023-03-03T01:20:38;34.72;;;13.55;;
13202;SDS011;6666;51.626;7.530;2023-03-03T01:23:08;36.38;;;13.80;;
13202;SDS011;6666;51.626;7.530;2023-03-03T01:25:36;36.92;;;13.02;;
13202;SDS011;6666;51.626;7.530;2023-03-03T01:28:05;38.97;;;14.95;;
13202;SDS011;6666;51.626;7.530;2023-03-03T01:30:33;42.00;;;15.60;;
13202;SDS011;6666;51.626;7.530;2023-03-03T01:33:02;39.92;;;14.50;;
13202;SDS011;6666;51.626;7.530;2023-03-03T01:35:30;39.88;;;14.82;;
13202;SDS011;6666;51.626;7.530;2023-03-03T01:37:59;42.05;;;14.70;;
13202;SDS011;6666;51.626;7.530;2023-03-03T01:40:29;36.03;;;13.40;;
13202;SDS011;6666;51.626;7.530;2023-03-03T01:42:58;33.35;;;13.02;;
13202;SDS011;6666;51.626;7.530;2023-03-03T01:45:27;43.05;;;15.15;;
13202;SDS011;6666;51.626;7.530;2023-03-03T01:48:00;36.60;;;13.95;;
13202;SDS011;6666;51.626;7.530;2023-03-03T01:50:37;43.13;;;15.88;;
13202;SDS011;6666;51.626;7.530;2023-03-03T01:53:13;39.10;;;13.25;;
13202;SDS011;6666;51.626;7.530;2023-03-03T01:55:46;41.10;;;13.93;;
13202;SDS011;6666;51.626;7.530;2023-03-03T01:58:17;39.78;;;14.43;;
13202;SDS011;6666;51.626;7.530;2023-03-03T02:00:50;32.97;;;13.20;;
13202;SDS011;6666;51.626;7.530;2023-03-03T02:03:22;33.88;;;13.18;;
13202;SDS011;6666;51.626;7.530;2023-03-03T02:05:53;35.25;;;12.95;;
13202;SDS011;6666;51.626;7.530;2023-03-03T02:08:27;35.57;;;13.47;;
13202;SDS011;6666;51.626;7.530;2023-03-03T02:11:02;34.75;;;13.95;;
13202;SDS011;6666;51.626;7.530;2023-03-03T02:13:32;40.22;;;13.75;;
13202;SDS011;6666;51.626;7.530;2023-03-03T02:16:00;34.20;;;12.98;;
13202;SDS011;6666;51.626;7.530;2023-03-03T02:18:28;34.00;;;13.73;;
13202;SDS011;6666;51.626;7.530;2023-03-03T02:20:57;33.17;;;13.02;;
13202;SDS011;6666;51.626;7.530;2023-03-03T02:23:33;37.28;;;14.18;;
13202;SDS011;6666;51.626;7.530;2023-03-03T02:26:09;37.17;;;12.45;;
13202;SDS011;6666;51.626;7.530;2023-03-03T02:28:40;35.35;;;13.38;;
13202;SDS011;6666;51.626;7.530;2023-03-03T02:31:11;33.05;;;11.90;;
13202;SDS011;6666;51.626;7.530;2023-03-03T02:33:44;33.30;;;12.87;;
13202;SDS011;6666;51.626;7.530;2023-03-03T02:36:15;37.97;;;14.02;;
13202;SDS011;6666;51.626;7.530;2023-03-03T02:38:45;30.40;;;12.40;;
13202;SDS011;6666;51.626;7.530;2023-03-03T02:41:24;35.38;;;13.90;;
13202;SDS011;6666;51.626;7.530;2023-03-03T02:43:58;35.45;;;13.70;;
13202;SDS011;6666;51.626;7.530;2023-03-03T02:46:31;38.38;;;13.63;;
13202;SDS011;6666;51.626;7.530;2023-03-03T02:49:00;34.30;;;13.37;;
13202;SDS011;6666;51.626;7.530;2023-03-03T02:51:29;33.43;;;14.10;;
13202;SDS011;6666;51.626;7.530;2023-03-03T02:53:58;30.80;;;12.70;;
13202;SDS011;6666;51.626;7.530;2023-03-03T02:56:30;37.22;;;14.30;;
13202;SDS011;6666;51.626;7.530;2023-03-03T02:58:59;36.42;;;14.32;;
13202;SDS011;6666;51.626;7.530;2023-03-03T03:01:31;34.00;;;12.98;;
13202;SDS011;6666;51.626;7.530;2023-03-03T03:04:05;30.63;;;12.25;;
13202;SDS011;6666;51.626;7.530;2023-03-03T03:06:38;32.10;;;12.90;;
13202;SDS011;6666;51.626;7.530;2023-03-03T03:09:08;33.20;;;12.27;;
13202;SDS011;6666;51.626;7.530;2023-03-03T03:11:38;31.95;;;13.00;;
13202;SDS011;6666;51.626;7.530;2023-03-03T03:14:09;32.45;;;12.13;;
13202;SDS011;6666;51.626;7.530;2023-03-03T03:16:39;31.30;;;12.17;;
13202;SDS011;6666;51.626;7.530;2023-03-03T03:19:08;28.40;;;11.00;;
13202;SDS011;6666;51.626;7.530;2023-03-03T03:21:37;26.53;;;10.90;;
13202;SDS011;6666;51.626;7.530;2023-03-03T03:24:06;24.05;;;9.65;;
13202;SDS011;6666;51.626;7.530;2023-03-03T03:26:39;25.00;;;9.47;;
13202;SDS011;6666;51.626;7.530;2023-03-03T03:29:08;25.93;;;10.33;;
13202;SDS011;6666;51.626;7.530;2023-03-03T03:31:37;21.55;;;9.45;;
13202;SDS011;6666;51.626;7.530;2023-03-03T03:34:06;20.50;;;9.73;;
13202;SDS011;6666;51.626;7.530;2023-03-03T03:36:34;20.37;;;8.60;;
13202;SDS011;6666;51.626;7.530;2023-03-03T03:39:06;20.98;;;9.18;;
13202;SDS011;6666;51.626;7.530;2023-03-03T03:41:40;22.88;;;8.52;;
13202;SDS011;6666;51.626;7.530;2023-03-03T03:44:08;17.70;;;8.40;;
13202;SDS011;6666;51.626;7.530;2023-03-03T03:46:37;17.65;;;8.02;;
13202;SDS011;6666;51.626;7.530;2023-03-03T03:49:05;17.50;;;8.10;;
13202;SDS011;6666;51.626;7.530;2023-03-03T03:51:34;14.93;;;7.10;;
13202;SDS011;6666;51.626;7.530;2023-03-03T03:54:07;14.43;;;7.63;;
13202;SDS011;6666;51.626;7.530;2023-03-03T03:56:37;13.68;;;7.25;;
13202;SDS011;6666;51.626;7.530;2023-03-03T03:59:07;14.43;;;7.38;;
13202;SDS011;6666;51.626;7.530;2023-03-03T04:01:36;15.85;;;7.78;;
13202;SDS011;6666;51.626;7.530;2023-03-03T04:04:05;16.23;;;7.82;;
13202;SDS011;6666;51.626;7.530;2023-03-03T04:06:33;13.88;;;7.05;;
13202;SDS011;6666;51.626;7.530;2023-03-03T04:09:04;14.27;;;8.07;;
13202;SDS011;6666;51.626;7.530;2023-03-03T04:11:32;14.55;;;7.90;;
13202;SDS011;6666;51.626;7.530;2023-03-03T04:14:02;16.88;;;8.18;;
13202;SDS011;6666;51.626;7.530;2023-03-03T04:16:34;16.13;;;8.07;;
13202;SDS011;6666;51.626;7.530;2023-03-03T04:19:02;18.55;;;7.57;;
13202;SDS011;6666;51.626;7.530;2023-03-03T04:21:33;20.75;;;8.82;;
13202;SDS011;6666;51.626;7.530;2023-03-03T04:24:01;19.15;;;9.27;;
13202;SDS011;6666;51.626;7.530;2023-03-03T04:26:29;20.23;;;8.48;;
13202;SDS011;6666;51.626;7.530;2023-03-03T04:29:01;22.20;;;8.95;;
13202;SDS011;6666;51.626;7.530;2023-03-03T04:31:30;18.35;;;8.80;;
13202;SDS011;6666;51.626;7.530;2023-03-03T04:34:01;20.45;;;8.90;;
13202;SDS011;6666;51.626;7.530;2023-03-03T04:36:29;20.55;;;9.45;;
13202;SDS011;6666;51.626;7.530;2023-03-03T04:38:58;22.63;;;9.23;;
13202;SDS011;6666;51.626;7.530;2023-03-03T04:41:28;19.05;;;8.65;;
13202;SDS011;6666;51.626;7.530;2023-03-03T04:43:56;21.57;;;8.73;;
13202;SDS011;6666;51.626;7.530;2023-03-03T04:46:25;19.98;;;8.73;;
13202;SDS011;6666;51.626;7.530;2023-03-03T04:48:54;17.90;;;8.30;;
13202;SDS011;6666;51.626;7.530;2023-03-03T04:51:25;20.45;;;8.57;;
13202;SDS011;6666;51.626;7.530;2023-03-03T04:53:54;24.80;;;10.07;;
13202;SDS011;6666;51.626;7.530;2023-03-03T04:56:23;23.80;;;9.73;;
13202;SDS011;6666;51.626;7.530;2023-03-03T04:58:51;20.15;;;8.90;;
13202;SDS011;6666;51.626;7.530;2023-03-03T05:01:20;24.30;;;10.18;;
13202;SDS011;6666;51.626;7.530;2023-03-03T05:03:48;19.27;;;9.20;;
13202;SDS011;6666;51.626;7.530;2023-03-03T05:06:17;22.73;;;9.52;;
13202;SDS011;6666;51.626;7.530;2023-03-03T05:08:47;25.52;;;9.30;;
13202;SDS011;6666;51.626;7.530;2023-03-03T05:11:15;21.85;;;9.52;;
13202;SDS011;6666;51.626;7.530;2023-03-03T05:13:44;21.38;;;9.65;;
13202;SDS011;6666;51.626;7.530;2023-03-03T05:16:12;27.33;;;11.05;;
13202;SDS011;6666;51.626;7.530;2023-03-03T05:18:41;31.40;;;10.93;;
13202;SDS011;6666;51.626;7.530;2023-03-03T05:21:11;24.80;;;10.33;;
13202;SDS011;6666;51.626;7.530;2023-03-03T05:23:39;26.50;;;10.25;;
13202;SDS011;6666;51.626;7.530;2023-03-03T05:26:08;26.20;;;10.63;;
13202;SDS011;6666;51.626;7.530;2023-03-03T05:28:37;26.35;;;10.68;;
13202;SDS011;6666;51.626;7.530;2023-03-03T05:31:05;21.20;;;9.68;;
13202;SDS011;6666;51.626;7.530;2023-03-03T05:33:33;25.93;;;10.30;;
13202;SDS011;6666;51.626;7.530;2023-03-03T05:36:02;25.60;;;10.75;;
13202;SDS011;6666;51.626;7.530;2023-03-03T05:38:30;29.25;;;10.85;;
13202;SDS011;6666;51.626;7.530;2023-03-03T05:40:58;28.98;;;10.18;;
13202;SDS011;6666;51.626;7.530;2023-03-03T05:43:28;25.08;;;10.32;;
13202;SDS011;6666;51.626;7.530;2023-03-03T05:45:56;24.92;;;10.63;;
13202;SDS011;6666;51.626;7.530;2023-03-03T05:48:25;29.00;;;11.20;;
13202;SDS011;6666;51.626;7.530;2023-03-03T05:50:56;32.25;;;11.10;;
13202;SDS011;6666;51.626;7.530;2023-03-03T05:53:25;26.20;;;10.50;;
13202;SDS011;6666;51.626;7.530;2023-03-03T05:55:53;29.20;;;11.38;;
13202;SDS011;6666;51.626;7.530;2023-03-03T05:58:21;30.00;;;11.20;;
13202;SDS011;6666;51.626;7.530;2023-03-03T06:00:51;33.90;;;11.05;;
13202;SDS011;6666;51.626;7.530;2023-03-03T06:03:20;34.35;;;12.80;;
13202;SDS011;6666;51.626;7.530;2023-03-03T06:05:48;31.60;;;10.65;;
13202;SDS011;6666;51.626;7.530;2023-03-03T06:08:16;31.20;;;11.80;;
13202;SDS011;6666;51.626;7.530;2023-03-03T06:10:44;31.77;;;11.43;;
13202;SDS011;6666;51.626;7.530;2023-03-03T06:13:14;30.35;;;11.43;;
13202;SDS011;6666;51.626;7.530;2023-03-03T06:15:42;33.40;;;11.70;;
13202;SDS011;6666;51.626;7.530;2023-03-03T06:18:12;28.40;;;11.33;;
13202;SDS011;6666;51.626;7.530;2023-03-03T06:20:41;33.20;;;11.68;;
13202;SDS011;6666;51.626;7.530;2023-03-03T06:23:09;30.77;;;12.18;;
13202;SDS011;6666;51.626;7.530;2023-03-03T06:25:37;30.63;;;11.20;;
13202;SDS011;6666;51.626;7.530;2023-03-03T06:28:06;34.47;;;12.30;;
13202;SDS011;6666;51.626;7.530;2023-03-03T06:30:34;36.00;;;11.55;;
13202;SDS011;6666;51.626;7.530;2023-03-03T06:33:03;33.17;;;11.52;;
13202;SDS011;6666;51.626;7.530;2023-03-03T06:35:32;31.08;;;12.80;;
13202;SDS011;6666;51.626;7.530;2023-03-03T06:38:01;36.17;;;12.00;;
13202;SDS011;6666;51.626;7.530;2023-03-03T06:40:30;35.85;;;11.73;;
13202;SDS011;6666;51.626;7.530;2023-03-03T06:42:58;29.95;;;11.43;;
13202;SDS011;6666;51.626;7.530;2023-03-03T06:45:27;37.03;;;11.75;;
13202;SDS011;6666;51.626;7.530;2023-03-03T06:47:56;33.67;;;11.85;;
13202;SDS011;6666;51.626;7.530;2023-03-03T06:50:24;35.70;;;13.20;;
13202;SDS011;6666;51.626;7.530;2023-03-03T06:52:56;34.05;;;11.77;;
13202;SDS011;6666;51.626;7.530;2023-03-03T06:55:31;38.85;;;12.25;;
13202;SDS011;6666;51.626;7.530;2023-03-03T06:57:59;33.17;;;11.25;;
13202;SDS011;6666;51.626;7.530;2023-03-03T07:00:28;36.72;;;12.18;;
13202;SDS011;6666;51.626;7.530;2023-03-03T07:02:57;33.97;;;12.10;;
13202;SDS011;6666;51.626;7.530;2023-03-03T07:05:28;35.33;;;10.80;;
13202;SDS011;6666;51.626;7.530;2023-03-03T07:07:59;36.42;;;12.02;;
13202;SDS011;6666;51.626;7.530;2023-03-03T07:10:28;37.80;;;11.80;;
13202;SDS011;6666;51.626;7.530;2023-03-03T07:13:07;36.15;;;11.85;;
13202;SDS011;6666;51.626;7.530;2023-03-03T07:15:45;38.08;;;12.52;;
13202;SDS011;6666;51.626;7.530;2023-03-03T07:18:32;38.45;;;11.50;;
13202;SDS011;6666;51.626;7.530;2023-03-03T07:21:16;38.20;;;12.85;;
13202;SDS011;6666;51.626;7.530;2023-03-03T07:23:48;32.97;;;11.82;;
13202;SDS011;6666;51.626;7.530;2023-03-03T07:26:18;40.13;;;12.63;;
13202;SDS011;6666;51.626;7.530;2023-03-03T07:28:51;36.67;;;12.80;;
13202;SDS011;6666;51.626;7.530;2023-03-03T07:31:24;35.85;;;12.23;;
13202;SDS011;6666;51.626;7.530;2023-03-03T07:33:56;36.78;;;12.23;;
13202;SDS011;6666;51.626;7.530;2023-03-03T07:36:28;36.80;;;11.97;;
13202;SDS011;6666;51.626;7.530;2023-03-03T07:38:59;36.83;;;11.57;;
13202;SDS011;6666;51.626;7.530;2023-03-03T07:41:31;34.00;;;11.90;;
13202;SDS011;6666;51.626;7.530;2023-03-03T07:44:03;35.92;;;11.88;;
13202;SDS011;6666;51.626;7.530;2023-03-03T07:46:35;38.60;;;12.80;;
13202;SDS011;6666;51.626;7.530;2023-03-03T07:49:12;39.97;;;11.65;;
13202;SDS011;6666;51.626;7.530;2023-03-03T07:51:49;35.30;;;12.45;;
13202;SDS011;6666;51.626;7.530;2023-03-03T07:54:26;30.38;;;11.63;;
13202;SDS011;6666;51.626;7.530;2023-03-03T07:56:59;33.85;;;11.98;;
13202;SDS011;6666;51.626;7.530;2023-03-03T07:59:40;39.60;;;13.60;;
13202;SDS011;6666;51.626;7.530;2023-03-03T08:02:29;36.13;;;12.83;;
13202;SDS011;6666;51.626;7.530;2023-03-03T08:05:18;35.60;;;12.52;;
13202;SDS011;6666;51.626;7.530;2023-03-03T08:07:57;25.67;;;10.30;;
13202;SDS011;6666;51.626;7.530;2023-03-03T08:10:42;31.55;;;10.75;;
13202;SDS011;6666;51.626;7.530;2023-03-03T08:13:15;26.23;;;9.95;;
13202;SDS011;6666;51.626;7.530;2023-03-03T08:15:45;31.42;;;11.00;;
13202;SDS011;6666;51.626;7.530;2023-03-03T08:18:21;28.88;;;10.38;;
13202;SDS011;6666;51.626;7.530;2023-03-03T08:20:51;25.38;;;10.10;;
13202;SDS011;6666;51.626;7.530;2023-03-03T08:23:24;27.45;;;8.60;;
13202;SDS011;6666;51.626;7.530;2023-03-03T08:25:54;26.35;;;9.70;;
13202;SDS011;6666;51.626;7.530;2023-03-03T08:28:22;31.05;;;9.90;;
13202;SDS011;6666;51.626;7.530;2023-03-03T08:30:51;25.75;;;10.20;;
13202;SDS011;6666;51.626;7.530;2023-03-03T08:33:39;29.20;;;10.60;;
13202;SDS011;6666;51.626;7.530;2023-03-03T08:36:08;27.73;;;10.13;;
13202;SDS011;6666;51.626;7.530;2023-03-03T08:38:37;22.83;;;9.13;;
13202;SDS011;6666;51.626;7.530;2023-03-03T08:41:07;22.97;;;8.60;;
13202;SDS011;6666;51.626;7.530;2023-03-03T08:43:35;23.23;;;8.77;;
13202;SDS011;6666;51.626;7.530;2023-03-03T08:46:05;26.10;;;9.45;;
13202;SDS011;6666;51.626;7.530;2023-03-03T08:48:36;25.58;;;8.70;;
13202;SDS011;6666;51.626;7.530;2023-03-03T08:51:04;27.45;;;9.75;;
13202;SDS011;6666;51.626;7.530;2023-03-03T08:53:32;26.98;;;9.32;;
13202;SDS011;6666;51.626;7.530;2023-03-03T08:56:02;23.40;;;9.00;;
13202;SDS011;6666;51.626;7.530;2023-03-03T08:58:32;29.40;;;9.38;;
13202;SDS011;6666;51.626;7.530;2023-03-03T09:01:02;26.50;;;8.43;;
13202;SDS011;6666;51.626;7.530;2023-03-03T09:03:31;25.65;;;8.50;;
13202;SDS011;6666;51.626;7.530;2023-03-03T09:05:59;24.65;;;9.00;;
13202;SDS011;6666;51.626;7.530;2023-03-03T09:08:28;23.13;;;7.80;;
13202;SDS011;6666;51.626;7.530;2023-03-03T09:10:56;29.05;;;10.00;;
13202;SDS011;6666;51.626;7.530;2023-03-03T09:13:24;25.17;;;8.65;;
13202;SDS011;6666;51.626;7.530;2023-03-03T09:15:56;23.73;;;8.50;;
13202;SDS011;6666;51.626;7.530;2023-03-03T09:18:29;27.08;;;9.73;;
13202;SDS011;6666;51.626;7.530;2023-03-03T09:21:05;28.00;;;8.88;;
13202;SDS011;6666;51.626;7.530;2023-03-03T09:23:46;27.10;;;9.20;;
13202;SDS011;6666;51.626;7.530;2023-03-03T09:26:29;24.67;;;8.80;;
13202;SDS011;6666;51.626;7.530;2023-03-03T09:29:15;27.05;;;8.05;;
13202;SDS011;6666;51.626;7.530;2023-03-03T09:31:48;22.13;;;8.10;;
13202;SDS011;6666;51.626;7.530;2023-03-03T09:34:19;23.05;;;9.18;;
13202;SDS011;6666;51.626;7.530;2023-03-03T09:36:50;23.17;;;8.73;;
13202;SDS011;6666;51.626;7.530;2023-03-03T09:39:20;21.52;;;8.90;;
13202;SDS011;6666;51.626;7.530;2023-03-03T09:45:16;24.73;;;8.68;;
13202;SDS011;6666;51.626;7.530;2023-03-03T09:48:07;22.58;;;7.72;;
13202;SDS011;6666;51.626;7.530;2023-03-03T09:50:52;21.17;;;7.22;;
13202;SDS011;6666;51.626;7.530;2023-03-03T09:53:32;22.25;;;7.70;;
13202;SDS011;6666;51.626;7.530;2023-03-03T09:56:21;22.35;;;7.85;;
13202;SDS011;6666;51.626;7.530;2023-03-03T09:58:59;21.73;;;7.78;;
13202;SDS011;6666;51.626;7.530;2023-03-03T10:01:42;20.83;;;7.68;;
13202;SDS011;6666;51.626;7.530;2023-03-03T10:04:24;17.70;;;6.78;;
13202;SDS011;6666;51.626;7.530;2023-03-03T10:07:14;22.93;;;8.03;;
13202;SDS011;6666;51.626;7.530;2023-03-03T10:10:04;20.30;;;7.50;;
13202;SDS011;6666;51.626;7.530;2023-03-03T10:12:45;21.45;;;7.15;;
13202;SDS011;6666;51.626;7.530;2023-03-03T10:18:15;19.70;;;7.93;;
13202;SDS011;6666;51.626;7.530;2023-03-03T10:20:55;20.10;;;7.20;;
13202;SDS011;6666;51.626;7.530;2023-03-03T10:23:39;23.33;;;8.20;;
13202;SDS011;6666;51.626;7.530;2023-03-03T10:26:36;25.15;;;8.80;;
13202;SDS011;6666;51.626;7.530;2023-03-03T10:29:37;20.77;;;7.67;;
13202;SDS011;6666;51.626;7.530;2023-03-03T10:32:20;19.50;;;8.15;;
13202;SDS011;6666;51.626;7.530;2023-03-03T10:35:07;24.25;;;8.38;;
13202;SDS011;6666;51.626;7.530;2023-03-03T10:37:57;22.40;;;9.20;;
13202;SDS011;6666;51.626;7.530;2023-03-03T10:40:49;24.27;;;8.15;;
13202;SDS011;6666;51.626;7.530;2023-03-03T10:46:16;25.55;;;9.55;;
13202;SDS011;6666;51.626;7.530;2023-03-03T10:49:06;23.23;;;8.63;;
13202;SDS011;6666;51.626;7.530;2023-03-03T10:51:48;20.55;;;8.23;;
13202;SDS011;6666;51.626;7.530;2023-03-03T10:54:47;19.90;;;7.90;;
13202;SDS011;6666;51.626;7.530;2023-03-03T10:57:29;19.75;;;7.95;;
13202;SDS011;6666;51.626;7.530;2023-03-03T11:00:14;19.75;;;7.45;;
13202;SDS011;6666;51.626;7.530;2023-03-03T11:02:55;34.42;;;11.68;;
13202;SDS011;6666;51.626;7.530;2023-03-03T11:05:39;26.13;;;9.27;;
13202;SDS011;6666;51.626;7.530;2023-03-03T11:08:10;25.55;;;9.10;;
13202;SDS011;6666;51.626;7.530;2023-03-03T11:10:48;26.77;;;9.00;;
13202;SDS011;6666;51.626;7.530;2023-03-03T11:13:23;25.05;;;8.52;;
13202;SDS011;6666;51.626;7.530;2023-03-03T11:16:10;26.30;;;9.30;;
13202;SDS011;6666;51.626;7.530;2023-03-03T11:18:51;24.63;;;9.07;;
13202;SDS011;6666;51.626;7.530;2023-03-03T11:21:31;22.73;;;8.05;;
13202;SDS011;6666;51.626;7.530;2023-03-03T11:24:13;22.58;;;7.78;;
13202;SDS011;6666;51.626;7.530;2023-03-03T11:27:01;22.08;;;7.88;;
13202;SDS011;6666;51.626;7.530;2023-03-03T11:29:49;25.08;;;8.68;;
13202;SDS011;6666;51.626;7.530;2023-03-03T11:32:35;25.42;;;8.68;;
13202;SDS011;6666;51.626;7.530;2023-03-03T11:35:16;23.40;;;8.13;;
13202;SDS011;6666;51.626;7.530;2023-03-03T11:37:52;22.77;;;8.75;;
13202;SDS011;6666;51.626;7.530;2023-03-03T11:40:40;21.83;;;8.73;;
13202;SDS011;6666;51.626;7.530;2023-03-03T11:43:16;20.40;;;8.40;;
13202;SDS011;6666;51.626;7.530;2023-03-03T11:46:02;23.77;;;8.40;;
13202;SDS011;6666;51.626;7.530;2023-03-03T11:48:34;21.27;;;8.20;;
13202;SDS011;6666;51.626;7.530;2023-03-03T11:51:07;23.13;;;8.63;;
13202;SDS011;6666;51.626;7.530;2023-03-03T11:53:43;19.33;;;7.65;;
13202;SDS011;6666;51.626;7.530;2023-03-03T11:56:26;22.85;;;7.95;;
13202;SDS011;6666;51.626;7.530;2023-03-03T11:59:06;22.75;;;7.80;;
13202;SDS011;6666;51.626;7.530;2023-03-03T12:02:01;24.10;;;8.00;;
13202;SDS011;6666;51.626;7.530;2023-03-03T12:04:38;27.73;;;10.98;;
13202;SDS011;6666;51.626;7.530;2023-03-03T12:07:15;28.05;;;10.07;;
13202;SDS011;6666;51.626;7.530;2023-03-03T12:09:54;22.90;;;8.27;;
13202;SDS011;6666;51.626;7.530;2023-03-03T12:12:34;19.73;;;8.20;;
13202;SDS011;6666;51.626;7.530;2023-03-03T12:15:14;17.92;;;6.70;;
13202;SDS011;6666;51.626;7.530;2023-03-03T12:17:56;20.20;;;7.72;;
13202;SDS011;6666;51.626;7.530;2023-03-03T12:20:48;21.92;;;8.07;;
13202;SDS011;6666;51.626;7.530;2023-03-03T12:23:33;18.52;;;7.20;;
13202;SDS011;6666;51.626;7.530;2023-03-03T12:26:24;16.55;;;7.18;;
13202;SDS011;6666;51.626;7.530;2023-03-03T12:29:02;18.90;;;7.35;;
13202;SDS011;6666;51.626;7.530;2023-03-03T12:31:38;17.83;;;6.90;;
13202;SDS011;6666;51.626;7.530;2023-03-03T12:34:17;20.13;;;7.82;;
13202;SDS011;6666;51.626;7.530;2023-03-03T12:39:49;19.35;;;7.05;;
13202;SDS011;6666;51.626;7.530;2023-03-03T12:42:30;19.30;;;7.30;;
13202;SDS011;6666;51.626;7.530;2023-03-03T12:45:13;13.63;;;6.20;;
13202;SDS011;6666;51.626;7.530;2023-03-03T12:47:57;15.77;;;6.15;;
13202;SDS011;6666;51.626;7.530;2023-03-03T12:50:30;15.68;;;6.57;;
13202;SDS011;6666;51.626;7.530;2023-03-03T12:53:10;17.67;;;6.40;;
13202;SDS011;6666;51.626;7.530;2023-03-03T12:55:51;16.52;;;6.60;;
13202;SDS011;6666;51.626;7.530;2023-03-03T12:58:29;17.58;;;6.88;;
13202;SDS011;6666;51.626;7.530;2023-03-03T13:01:07;20.80;;;8.30;;
13202;SDS011;6666;51.626;7.530;2023-03-03T13:03:51;14.48;;;6.88;;
13202;SDS011;6666;51.626;7.530;2023-03-03T13:06:27;14.82;;;6.18;;
13202;SDS011;6666;51.626;7.530;2023-03-03T13:09:01;16.85;;;6.00;;
13202;SDS011;6666;51.626;7.530;2023-03-03T13:14:37;18.40;;;6.70;;
13202;SDS011;6666;51.626;7.530;2023-03-03T13:17:14;15.52;;;6.70;;
13202;SDS011;6666;51.626;7.530;2023-03-03T13:19:49;14.48;;;5.93;;
13202;SDS011;6666;51.626;7.530;2023-03-03T13:22:26;15.73;;;6.70;;
13202;SDS011;6666;51.626;7.530;2023-03-03T13:25:32;21.35;;;8.50;;
13202;SDS011;6666;51.626;7.530;2023-03-03T13:28:12;15.32;;;6.70;;
13202;SDS011;6666;51.626;7.530;2023-03-03T13:30:49;18.35;;;6.93;;
13202;SDS011;6666;51.626;7.530;2023-03-03T13:33:25;16.45;;;6.50;;
13202;SDS011;6666;51.626;7.530;2023-03-03T13:35:57;16.23;;;6.78;;
13202;SDS011;6666;51.626;7.530;2023-03-03T13:38:33;17.10;;;6.20;;
13202;SDS011;6666;51.626;7.530;2023-03-03T13:41:06;18.65;;;6.95;;
13202;SDS011;6666;51.626;7.530;2023-03-03T13:43:43;16.98;;;7.07;;
13202;SDS011;6666;51.626;7.530;2023-03-03T13:46:15;21.00;;;7.03;;
13202;SDS011;6666;51.626;7.530;2023-03-03T13:48:51;16.88;;;6.53;;
13202;SDS011;6666;51.626;7.530;2023-03-03T13:51:32;16.67;;;6.68;;
13202;SDS011;6666;51.626;7.530;2023-03-03T13:54:12;20.23;;;7.07;;
13202;SDS011;6666;51.626;7.530;2023-03-03T13:57:00;21.13;;;7.40;;
13202;SDS011;6666;51.626;7.530;2023-03-03T13:59:41;17.17;;;6.60;;
13202;SDS011;6666;51.626;7.530;2023-03-03T14:05:18;16.00;;;6.65;;
13202;SDS011;6666;51.626;7.530;2023-03-03T14:07:55;16.45;;;6.60;;
13202;SDS011;6666;51.626;7.530;2023-03-03T14:10:28;15.55;;;6.43;;
13202;SDS011;6666;51.626;7.530;2023-03-03T14:13:01;20.23;;;7.25;;
13202;SDS011;6666;51.626;7.530;2023-03-03T14:15:32;18.98;;;7.05;;
13202;SDS011;6666;51.626;7.530;2023-03-03T14:18:14;19.17;;;7.57;;
13202;SDS011;6666;51.626;7.530;2023-03-03T14:20:52;17.10;;;7.32;;
13202;SDS011;6666;51.626;7.530;2023-03-03T14:23:24;21.20;;;7.60;;
13202;SDS011;6666;51.626;7.530;2023-03-03T14:25:59;19.65;;;7.80;;
13202;SDS011;6666;51.626;7.530;2023-03-03T14:28:37;19.52;;;7.65;;
13202;SDS011;6666;51.626;7.530;2023-03-03T14:31:14;18.48;;;8.23;;
13202;SDS011;6666;51.626;7.530;2023-03-03T14:33:45;18.00;;;7.40;;
13202;SDS011;6666;51.626;7.530;2023-03-03T14:36:26;17.63;;;7.13;;
13202;SDS011;6666;51.626;7.530;2023-03-03T14:38:57;16.63;;;7.03;;
13202;SDS011;6666;51.626;7.530;2023-03-03T14:41:35;20.15;;;6.82;;
13202;SDS011;6666;51.626;7.530;2023-03-03T14:44:26;17.83;;;7.05;;
13202;SDS011;6666;51.626;7.530;2023-03-03T14:47:00;16.05;;;7.35;;
13202;SDS011;6666;51.626;7.530;2023-03-03T14:49:46;19.88;;;7.22;;
13202;SDS011;6666;51.626;7.530;2023-03-03T14:52:21;18.45;;;7.95;;
13202;SDS011;6666;51.626;7.530;2023-03-03T14:54:53;18.33;;;7.60;;
13202;SDS011;6666;51.626;7.530;2023-03-03T14:57:35;17.27;;;7.00;;
13202;SDS011;6666;51.626;7.530;2023-03-03T15:00:28;21.10;;;7.28;;
13202;SDS011;6666;51.626;7.530;2023-03-03T15:03:03;15.20;;;5.68;;
13202;SDS011;6666;51.626;7.530;2023-03-03T15:05:48;22.85;;;7.50;;
13202;SDS011;6666;51.626;7.530;2023-03-03T15:08:22;17.33;;;7.38;;
13202;SDS011;6666;51.626;7.530;2023-03-03T15:11:10;15.02;;;6.47;;
13202;SDS011;6666;51.626;7.530;2023-03-03T15:13:40;16.67;;;6.43;;
13202;SDS011;6666;51.626;7.530;2023-03-03T15:16:09;16.47;;;7.03;;
13202;SDS011;6666;51.626;7.530;2023-03-03T15:21:58;14.50;;;6.05;;
13202;SDS011;6666;51.626;7.530;2023-03-03T15:24:36;17.88;;;6.85;;
13202;SDS011;6666;51.626;7.530;2023-03-03T15:27:11;15.38;;;7.50;;
13202;SDS011;6666;51.626;7.530;2023-03-03T15:29:51;14.88;;;6.80;;
13202;SDS011;6666;51.626;7.530;2023-03-03T15:32:30;17.25;;;7.15;;
13202;SDS011;6666;51.626;7.530;2023-03-03T15:35:11;16.50;;;6.30;;
13202;SDS011;6666;51.626;7.530;2023-03-03T15:37:53;14.77;;;6.82;;
13202;SDS011;6666;51.626;7.530;2023-03-03T15:40:26;14.90;;;6.95;;
13202;SDS011;6666;51.626;7.530;2023-03-03T15:43:01;15.75;;;7.30;;
13202;SDS011;6666;51.626;7.530;2023-03-03T15:45:37;18.80;;;7.70;;
13202;SDS011;6666;51.626;7.530;2023-03-03T15:48:25;17.77;;;7.15;;
13202;SDS011;6666;51.626;7.530;2023-03-03T15:51:14;16.38;;;7.45;;